Buoy 41979

sailwx.info

Track history (hours):
 
Tides and Currents Weather Stations Pressure Air Temp Water Temp Dewpoint Dewpoint Depression Visibility Wind Speed Wind Dir Waves Ship Positions

Drifting buoy 41979

Last reported at 2013-Sep-30 23:53 UTC. Time now 2014-Oct-24 09:37 UTC.
Position N 38°14' W 069°13'.
Warning: this ship's position is years out of date!

Water temperature 26.8 ° C

Date/timePositionNaut miles runAvg speedWind from/ knotsBaromVisibWave heightAir tempDewpointWater temp
2013-Sep-30 23:53N 38°14' W 069°13'0 0.0 26.8
2013-Sep-30 23:47N 38°14' W 069°13'0 0.0 26.9
2013-Sep-30 23:46N 38°14' W 069°13'0 0.0 26.9
2013-Sep-30 23:09N 38°14' W 069°13'0 0.0 26.9
2013-Sep-30 22:30N 38°14' W 069°13'0 0.0 26.9
2013-Sep-30 22:10N 38°14' W 069°13'0 0.0 26.9
2013-Sep-30 21:11N 38°14' W 069°13'1 7.8 26.9
2013-Sep-30 21:05N 38°14' W 069°14'0 0.0 26.9
2013-Sep-30 20:58N 38°14' W 069°14'693.5 26.9
2013-Sep-30 20:54N 38°12' W 069°21'0 0.0 26.9
2013-Sep-30 19:31N 38°12' W 069°21'0 0.0 26.9
2013-Sep-30 19:22N 38°12' W 069°21'0 0.0 26.9
2013-Sep-30 18:49N 38°12' W 069°21'0 0.0 26.9
2013-Sep-30 18:41N 38°12' W 069°21'0 0.0 26.9
2013-Sep-30 17:48N 38°12' W 069°21'2 3.4 26.9
2013-Sep-30 17:07N 38°11' W 069°24'3 2.4 26.9
2013-Sep-30 16:03N 38°11' W 069°27'1 2.5 26.9
2013-Sep-30 15:43N 38°10' W 069°27'4 7.7 26.9
2013-Sep-30 15:13N 38°08' W 069°31'0 0.0 26.9
2013-Sep-30 14:25N 38°08' W 069°31'1 2.5 26.8
2013-Sep-30 14:05N 38°08' W 069°32'8126.5 26.8
2013-Sep-30 14:01N 38°04' W 069°42'0 0.0 26.8
2013-Sep-30 12:26N 38°04' W 069°42'0 0.0 26.8
2013-Sep-30 12:21N 38°04' W 069°42'0 0.0 26.8
2013-Sep-30 11:36N 38°04' W 069°42'0 0.0 26.8
2013-Sep-30 11:16N 38°04' W 069°42'430.5 26.8
2013-Sep-30 11:08N 38°02' W 069°46'0 0.0 26.8
2013-Sep-30 09:57N 38°02' W 069°46'1 6.9 26.8
2013-Sep-30 09:46N 38°01' W 069°47'432.3 26.8
2013-Sep-30 09:39N 37°59' W 069°51'0 0.0 26.8
2013-Sep-30 09:36N 37°59' W 069°51'0 0.0 26.8
2013-Sep-30 09:30N 37°59' W 069°51'0 0.0 26.9
2013-Sep-30 09:27N 37°59' W 069°51'0 0.0 26.9
2013-Sep-30 08:56N 37°59' W 069°51'0 0.0 26.9
2013-Sep-30 08:16N 37°59' W 069°51'1 4.6 26.9
2013-Sep-30 08:00N 37°58' W 069°52'338.7 26.9
2013-Sep-30 07:56N 37°55' W 069°53'0 0.0 26.9
2013-Sep-30 07:23N 37°55' W 069°53'953.2 26.9
2013-Sep-30 07:13N 37°54' W 070°04'0 0.0 26.9
2013-Sep-30 05:41N 37°54' W 070°04'0 0.0 26.9
2013-Sep-30 05:37N 37°54' W 070°04'881.6 26.9
2013-Sep-30 05:31N 37°47' W 070°10'0 0.0 26.9
2013-Sep-30 03:25N 37°47' W 070°10'0 0.0 27.0
2013-Sep-30 03:20N 37°47' W 070°10'1 0.9 27.0
2013-Sep-30 02:47N 37°47' W 070°10'263.3 27.0
2013-Sep-30 02:45N 37°46' W 070°12'0 0.1 27.0
2013-Sep-30 02:02N 37°46' W 070°12'2 8.4 27.0
2013-Sep-30 01:47N 37°46' W 070°15'0 0.9 27.0
2013-Sep-30 01:44N 37°46' W 070°15'527.9 27.0
2013-Sep-30 01:34N 37°43' W 070°19'0 0.0 27.0
2013-Sep-30 01:14N 37°43' W 070°19'0 0.0 27.0
2013-Sep-30 01:04N 37°43' W 070°19'1 1.1 27.0
2013-Sep-30 00:26N 37°43' W 070°20'0 0.0 27.0
2013-Sep-30 00:17N 37°43' W 070°20'1776.8 27.0
2013-Sep-30 00:04N 37°34' W 070°38'   27.0
2013-Sep-26 03:27N 34°12' W 075°46'3 3.4 28.3
2013-Sep-26 02:31N 34°09' W 075°48'6 7.7 28.4
2013-Sep-26 01:47N 34°06' W 075°53'0 0.0 28.4
2013-Sep-26 00:54N 34°06' W 075°53'1 6.3 28.4
2013-Sep-26 00:46N 34°07' W 075°53'21 3.4 28.4
2013-Sep-25 18:42N 33°50' W 076°08'1 1.1 28.4
2013-Sep-25 18:02N 33°50' W 076°07'7 5.7 28.4
2013-Sep-25 16:53N 33°44' W 076°12'0 0.0 28.4
2013-Sep-25 16:46N 33°44' W 076°12'0 0.1 28.4
2013-Sep-25 16:19N 33°44' W 076°12'0 1.0 28.4
2013-Sep-25 16:16N 33°44' W 076°12'0 0.4 28.4
2013-Sep-25 16:09N 33°44' W 076°12'0 7.0 28.4
2013-Sep-25 16:06N 33°44' W 076°12'3 3.2 28.4
2013-Sep-25 15:09N 33°42' W 076°14'111.1 28.4
2013-Sep-25 15:05N 33°42' W 076°14'2 3.4 28.4
2013-Sep-25 14:30N 33°40' W 076°15'419.5 28.4
2013-Sep-25 14:19N 33°37' W 076°17'7 7.8 28.4
2013-Sep-25 13:26N 33°32' W 076°23'0 0.0 28.4
2013-Sep-25 13:21N 33°32' W 076°23'0 0.0 28.4
2013-Sep-25 11:41N 33°32' W 076°23'4 4.5 28.4
2013-Sep-25 10:52N 33°30' W 076°26'0 1.1 28.4
2013-Sep-25 10:39N 33°30' W 076°27'228.7 28.4
2013-Sep-25 10:34N 33°28' W 076°28'0 0.0 28.4
2013-Sep-25 10:02N 33°28' W 076°28'322.2 28.4
2013-Sep-25 09:55N 33°26' W 076°30'0 0.0 28.4
2013-Sep-25 09:51N 33°26' W 076°30'0 0.0 28.4
2013-Sep-25 09:12N 33°26' W 076°30'1 8.3 28.4
2013-Sep-25 09:03N 33°25' W 076°31'0 1.8 28.4
2013-Sep-25 08:59N 33°25' W 076°31'122.6 28.4
2013-Sep-25 08:56N 33°25' W 076°32'221.2 28.4
2013-Sep-25 08:50N 33°23' W 076°33'0 0.0 28.4
2013-Sep-25 08:17N 33°23' W 076°33'0 0.0 28.4
2013-Sep-25 08:15N 33°23' W 076°33'774.2 28.4
2013-Sep-25 08:09N 33°19' W 076°41'0 0.0 28.4
2013-Sep-25 07:14N 33°19' W 076°41'0 0.0 28.4
2013-Sep-25 06:31N 33°19' W 076°41'10311.2 28.4
2013-Sep-25 06:29N 33°12' W 076°50'3 1.1 28.4
2013-Sep-25 03:45N 33°10' W 076°52'0 0.0 28.5
2013-Sep-25 02:55N 33°10' W 076°52'1 8.9 28.4
2013-Sep-25 02:46N 33°09' W 076°53'0 0.0 28.4
2013-Sep-25 02:41N 33°09' W 076°53'2 4.9 28.4
2013-Sep-25 02:11N 33°08' W 076°56'0 0.0 28.4
2013-Sep-25 02:08N 33°08' W 076°56'4 4.7 28.4
2013-Sep-25 01:16N 33°05' W 076°59'22133.1 28.5
2013-Sep-25 01:06N 32°47' W 077°15'0 0.0 28.5
2013-Sep-25 00:22N 32°47' W 077°15'0 0.0 28.5
2013-Sep-24 23:40N 32°47' W 077°15'0 0.0 28.5
2013-Sep-24 23:17N 32°47' W 077°15'0 0.0 28.5
2013-Sep-24 22:11N 32°47' W 077°15'0 0.0 28.5
2013-Sep-24 21:43N 32°47' W 077°15'0 0.0 28.5
2013-Sep-24 21:35N 32°47' W 077°15'0 0.0 28.5
2013-Sep-24 20:37N 32°47' W 077°15'0 0.0 28.5
2013-Sep-24 20:31N 32°47' W 077°15'0 0.0 28.5
2013-Sep-24 20:02N 32°47' W 077°15'0 0.4 28.5
2013-Sep-24 19:52N 32°47' W 077°15'0 0.0 28.5
2013-Sep-24 18:55N 32°47' W 077°15'912.8 28.5
2013-Sep-24 18:13N 32°40' W 077°21'9 8.9 28.5
2013-Sep-24 17:13N 32°47' W 077°15'1035.9 28.5
2013-Sep-24 16:57N 32°40' W 077°22'0 0.0 28.5
2013-Sep-24 16:30N 32°40' W 077°22'0 0.0 28.5
2013-Sep-24 16:27N 32°40' W 077°22'0 0.0 28.5
2013-Sep-24 15:23N 32°40' W 077°22'0 2.8 28.5
2013-Sep-24 15:16N 32°40' W 077°21'2 5.3 28.5
2013-Sep-24 14:53N 32°38' W 077°22'0 0.0 28.5
2013-Sep-24 14:50N 32°38' W 077°22'1618.0 28.5
2013-Sep-24 13:58N 32°26' W 077°35'0 0.0 28.5
2013-Sep-24 13:41N 32°26' W 077°35'0 0.0 28.5
2013-Sep-24 13:38N 32°26' W 077°35'0 0.0 28.5
2013-Sep-24 12:03N 32°26' W 077°35'0 0.0 28.5
2013-Sep-24 11:23N 32°26' W 077°35'0 0.0 28.5
2013-Sep-24 10:50N 32°26' W 077°35'0 0.0 28.5
2013-Sep-24 10:45N 32°26' W 077°35'0 0.0 28.5
2013-Sep-24 10:17N 32°26' W 077°35'0 0.0 28.5
2013-Sep-24 10:16N 32°26' W 077°35'0 0.0 28.5
2013-Sep-24 09:42N 32°26' W 077°35'1020.8 28.5
2013-Sep-24 09:14N 32°20' W 077°44'0 0.0 28.5
2013-Sep-24 09:11N 32°20' W 077°44'0 0.0 28.5
2013-Sep-24 09:03N 32°20' W 077°44'0 0.0 28.5
2013-Sep-24 08:39N 32°20' W 077°44'0 0.0 28.5
2013-Sep-24 08:26N 32°20' W 077°44'0 0.0 28.5
2013-Sep-24 07:30N 32°20' W 077°44'0 0.0 28.5
2013-Sep-24 07:27N 32°20' W 077°44'0 0.0 28.5
2013-Sep-24 06:48N 32°20' W 077°44'9 3.4 28.5
2013-Sep-24 04:06N 32°15' W 077°53'0 0.0 28.5
2013-Sep-24 03:17N 32°15' W 077°53'1 6.6 28.5
2013-Sep-24 03:10N 32°15' W 077°54'415.6 28.5
2013-Sep-24 02:55N 32°14' W 077°58'0 0.0 28.5
2013-Sep-24 02:32N 32°14' W 077°58'0 0.0 28.5
2013-Sep-24 02:29N 32°14' W 077°58'0 0.0 28.5
2013-Sep-24 01:31N 32°14' W 077°58'0 0.0 28.5
2013-Sep-24 01:29N 32°14' W 077°58'0 0.0 28.5
2013-Sep-24 01:17N 32°14' W 077°58'4 8.7 28.5
2013-Sep-24 00:48N 32°14' W 078°03'0 0.0 28.5
2013-Sep-24 00:11N 32°14' W 078°03'3 1.7 28.5
2013-Sep-23 22:31N 32°13' W 078°06'423.6 28.5
2013-Sep-23 22:22N 32°12' W 078°10'0 0.0 28.5
2013-Sep-23 22:06N 32°12' W 078°10'340.6 28.5
2013-Sep-23 22:02N 32°11' W 078°13'0 0.0 28.5
2013-Sep-23 20:45N 32°11' W 078°13'12138.5 28.6
2013-Sep-23 20:40N 32°09' W 078°27'0 0.0 28.6
2013-Sep-23 20:28N 32°09' W 078°27'0 0.0 28.6
2013-Sep-23 20:03N 32°09' W 078°27'0 0.0 28.6
2013-Sep-23 19:06N 32°09' W 078°27'0 0.0 28.6
2013-Sep-23 18:16N 32°09' W 078°27'0 0.0 28.6
2013-Sep-23 16:48N 32°09' W 078°27'433.2 28.6
2013-Sep-23 16:41N 32°07' W 078°31'0 0.0 28.6
2013-Sep-23 15:59N 32°07' W 078°31'2 4.7 28.5
2013-Sep-23 15:38N 32°06' W 078°32'0 0.0 28.6
2013-Sep-23 15:31N 32°06' W 078°32'9186.7 28.5
2013-Sep-23 15:28N 32°01' W 078°42'0 0.0 28.5
2013-Sep-23 15:11N 32°01' W 078°42'0 0.0 28.5
2013-Sep-23 15:04N 32°01' W 078°42'0 0.0 28.5
2013-Sep-23 14:16N 32°01' W 078°42'718.5 28.5
2013-Sep-23 13:53N 31°58' W 078°49'0 0.0 28.5
2013-Sep-23 13:49N 31°58' W 078°49'0 0.0 28.5
2013-Sep-23 13:28N 31°58' W 078°49'0 0.0 28.5
2013-Sep-23 11:52N 31°58' W 078°49'0 0.0 28.5
2013-Sep-23 11:01N 31°58' W 078°49'0 0.0
2013-Sep-23 11:00N 31°58' W 078°49'1 5.1 28.6
2013-Sep-23 10:47N 31°57' W 078°50'0 0.0 28.5
2013-Sep-23 10:15N 31°57' W 078°50'462.1 28.6
2013-Sep-23 10:11N 31°55' W 078°54'0 0.0 28.6
2013-Sep-23 09:25N 31°55' W 078°54'0 0.0 28.6
2013-Sep-23 09:22N 31°55' W 078°54'0 0.0 28.6
2013-Sep-23 09:17N 31°55' W 078°54'0 0.0 28.6
2013-Sep-23 09:14N 31°55' W 078°54'0 0.0 28.6
2013-Sep-23 09:05N 31°55' W 078°54'1 3.6 28.6
2013-Sep-23 08:41N 31°53' W 078°55'0 0.0 28.6
2013-Sep-23 08:38N 31°53' W 078°55'323.3 28.6
2013-Sep-23 08:31N 31°51' W 078°56'0 0.0 28.6
2013-Sep-23 07:41N 31°51' W 078°56'229.4 28.6
2013-Sep-23 07:36N 31°50' W 078°59'0 0.1 28.6
2013-Sep-23 06:59N 31°50' W 078°59'1163.7 28.6
2013-Sep-23 06:49N 31°42' W 079°07'0 0.0 28.6
2013-Sep-23 05:13N 31°42' W 079°07'0 0.1 28.6
2013-Sep-23 03:31N 31°42' W 079°07'2 6.5 28.7
2013-Sep-23 03:11N 31°40' W 079°08'0 0.0 28.7
2013-Sep-23 03:08N 31°40' W 079°08'1 2.6 28.7
2013-Sep-23 02:51N 31°41' W 079°08'3 3.4 28.7
2013-Sep-23 01:58N 31°38' W 079°10'0 1.2 28.7
2013-Sep-23 01:55N 31°38' W 079°10'114.6 28.7
2013-Sep-23 01:50N 31°37' W 079°11'0 0.0 28.7
2013-Sep-23 01:31N 31°37' W 079°11'2 9.8 28.7
2013-Sep-23 01:21N 31°36' W 079°12'0 0.0 28.7
2013-Sep-23 01:09N 31°36' W 079°12'1 9.5 28.7
2013-Sep-23 01:02N 31°35' W 079°13'0 0.0 28.7
2013-Sep-23 00:42N 31°35' W 079°13'5 9.3 28.7
2013-Sep-23 00:13N 31°32' W 079°16'0 0.1 28.7
2013-Sep-22 23:02N 31°32' W 079°16'2 3.7 28.7
2013-Sep-22 22:35N 31°30' W 079°17'554.4 28.7
2013-Sep-22 22:30N 31°26' W 079°20'590.6 28.7
2013-Sep-22 22:27N 31°30' W 079°17'5 3.2 28.7
2013-Sep-22 20:59N 31°26' W 079°20'0 0.0 28.7
2013-Sep-22 20:51N 31°26' W 079°20'0 0.0 28.7
2013-Sep-22 20:46N 31°26' W 079°20'1527.8 28.7
2013-Sep-22 20:13N 31°12' W 079°27'0 0.0 28.7
2013-Sep-22 19:17N 31°12' W 079°27'0 0.0 28.7
2013-Sep-22 19:10N 31°12' W 079°27'0 0.0 28.7
2013-Sep-22 18:31N 31°12' W 079°27'0 0.0 28.7
2013-Sep-22 18:21N 31°12' W 079°27'0 0.1 28.7
2013-Sep-22 16:52N 31°12' W 079°27'0 0.0 28.7
2013-Sep-22 16:16N 31°12' W 079°27'2 4.4 28.7
2013-Sep-22 15:46N 31°10' W 079°28'0 0.0 28.7
2013-Sep-22 15:43N 31°10' W 079°28'0 0.0 28.7
2013-Sep-22 15:40N 31°10' W 079°28'0 0.0 28.7
2013-Sep-22 15:30N 31°10' W 079°28'3 3.7 28.7
2013-Sep-22 14:42N 31°07' W 079°29'2 3.6 28.7
2013-Sep-22 14:09N 31°05' W 079°30'0 0.0 28.7
2013-Sep-22 14:06N 31°05' W 079°30'0 0.0 28.7
2013-Sep-22 13:57N 31°05' W 079°30'0 1.4 28.7
2013-Sep-22 13:50N 31°05' W 079°29'6 4.1 28.7
2013-Sep-22 12:24N 30°59' W 079°30'0 4.7 28.7
2013-Sep-22 12:23N 30°59' W 079°30'6 5.1 28.7
2013-Sep-22 11:11N 30°54' W 079°34'0 2.1 28.7
2013-Sep-22 11:08N 30°54' W 079°35'0 0.0 28.7
2013-Sep-22 10:45N 30°54' W 079°35'6 4.8 28.7
2013-Sep-22 09:31N 30°49' W 079°37'0 0.0 28.7
2013-Sep-22 09:28N 30°49' W 079°37'0 0.0 28.7
2013-Sep-22 09:05N 30°49' W 079°37'0 0.7 28.7
2013-Sep-22 08:48N 30°49' W 079°36'655.9 28.7
2013-Sep-22 08:42N 30°43' W 079°38'0 0.0 28.7
2013-Sep-22 07:55N 30°43' W 079°38'0 0.0 28.7
2013-Sep-22 07:49N 30°43' W 079°38'0 0.0 28.7
2013-Sep-22 07:13N 30°43' W 079°38'0 0.0 28.8
2013-Sep-22 07:10N 30°43' W 079°38'0 0.0 28.8
2013-Sep-22 07:07N 30°43' W 079°38'1197.4 28.8
2013-Sep-22 07:00N 30°33' W 079°42'0 0.0 28.8
2013-Sep-22 05:27N 30°33' W 079°42'0 0.0 28.8
2013-Sep-22 05:24N 30°33' W 079°42'0 0.0 28.8
2013-Sep-22 03:57N 30°33' W 079°42'113.8 28.9
2013-Sep-22 03:51N 30°31' W 079°43'4 7.7 28.9
2013-Sep-22 03:16N 30°28' W 079°46'0 0.0 28.9
2013-Sep-22 03:12N 30°28' W 079°46'0 0.0 28.9
2013-Sep-22 02:16N 30°28' W 079°46'0 0.0 29.0
2013-Sep-22 02:11N 30°28' W 079°46'2 4.1 29.0
2013-Sep-22 01:42N 30°26' W 079°46'865.3 29.1
2013-Sep-22 01:35N 30°19' W 079°48'769.7 29.1
2013-Sep-22 01:29N 30°26' W 079°47'726.1 29.1
2013-Sep-22 01:13N 30°19' W 079°48'0 0.0 29.1
2013-Sep-22 00:36N 30°19' W 079°48'0 0.0 29.3
2013-Sep-22 00:30N 30°19' W 079°48'1 1.5 29.4
2013-Sep-21 23:31N 30°20' W 079°49'2 3.8 29.7
2013-Sep-21 22:56N 30°18' W 079°49'6 5.7 29.7
2013-Sep-21 21:51N 30°13' W 079°53'0 0.0 30.0
2013-Sep-21 21:17N 30°13' W 079°53'1 5.2 29.9
2013-Sep-21 21:10N 30°12' W 079°53'0 0.9 29.9
2013-Sep-21 21:02N 30°12' W 079°53'6 9.6 30.0
2013-Sep-21 20:24N 30°06' W 079°55'0 0.0 30.0
2013-Sep-21 20:21N 30°06' W 079°55'0 0.1 30.0
2013-Sep-21 19:28N 30°06' W 079°55'1216.5 30.0
2013-Sep-21 18:45N 29°55' W 079°56'0 0.0 30.0
2013-Sep-21 17:00N 29°55' W 079°56'0 0.0 29.3
2013-Sep-21 16:01N 29°55' W 079°56'125.0 29.1
2013-Sep-21 15:59N 29°55' W 079°55'646.4 29.1
2013-Sep-21 15:51N 29°48' W 079°55'0 0.0 29.1
2013-Sep-21 15:47N 29°48' W 079°55'0 0.0 29.0
2013-Sep-21 15:01N 29°48' W 079°55'0 0.2 28.8
2013-Sep-21 14:17N 29°49' W 079°55'9270.1
2013-Sep-21 14:15N 29°40' W 079°55'0 0.0 28.7
2013-Sep-21 14:12N 29°40' W 079°55'0 0.0 28.7
2013-Sep-21 14:08N 29°40' W 079°55'910.5 28.7
2013-Sep-21 13:17N 29°48' W 079°55'0 0.0 28.7
2013-Sep-21 13:14N 29°48' W 079°55'926.7 28.7
2013-Sep-21 12:54N 29°40' W 079°55'0 0.0 28.7
2013-Sep-21 11:41N 29°40' W 079°55'0 4.8 28.7
2013-Sep-21 11:38N 29°40' W 079°55'1 5.6 28.7
2013-Sep-21 11:23N 29°38' W 079°55'1 6.8 28.7
2013-Sep-21 11:16N 29°38' W 079°55'4 3.3 28.7
2013-Sep-21 10:00N 29°34' W 079°54'1 6.4 28.7
2013-Sep-21 09:53N 29°33' W 079°55'0 0.0 28.7
2013-Sep-21 09:49N 29°33' W 079°55'0 0.6 28.7
2013-Sep-21 09:44N 29°33' W 079°55'233.3 28.7
2013-Sep-21 09:40N 29°32' W 079°53'21422.5 28.7
2013-Sep-21 09:37N 29°11' W 079°53'0 0.0 28.7
2013-Sep-21 08:57N 29°11' W 079°53'0 0.0 28.7
2013-Sep-21 08:04N 29°11' W 079°53'0 0.0 28.7
2013-Sep-21 08:01N 29°11' W 079°53'0 0.0 28.7
2013-Sep-21 07:58N 29°11' W 079°53'0 0.0 28.7
2013-Sep-21 07:17N 29°11' W 079°53'0 0.0 28.7
2013-Sep-21 07:11N 29°11' W 079°53'0 0.0 28.7
2013-Sep-21 05:38N 29°11' W 079°53'0 0.0 28.7
2013-Sep-21 05:35N 29°11' W 079°53'0 0.0 28.7
2013-Sep-21 04:16N 29°11' W 079°53'6 8.4 28.7
2013-Sep-21 03:30N 29°04' W 079°54'0 0.0 28.7
2013-Sep-21 02:32N 29°04' W 079°54'1 1.1 28.7
2013-Sep-21 01:54N 29°04' W 079°55'764.0 28.7
2013-Sep-21 01:47N 28°56' W 079°54'0 0.0 28.8
2013-Sep-21 01:41N 28°56' W 079°54'0 0.0 28.8
2013-Sep-21 00:57N 28°56' W 079°54'0 0.0 28.8
2013-Sep-21 00:08N 28°56' W 079°54'0 0.0 28.8
2013-Sep-21 00:07N 28°56' W 079°54'   28.8
Track history (hours):
 
Tides and Currents Weather Stations Pressure Air Temp Water Temp Dewpoint Dewpoint Depression Visibility Wind Speed Wind Dir Waves Ship Positions

Drifting buoy 41979

Last reported at 2013-Sep-30 23:53 UTC. Time now 2014-Oct-24 09:37 UTC.
Position N 38°14' W 069°13'.
Warning: this ship's position is years out of date!

Water temperature 26.8 ° C

Date/timePositionNaut miles runAvg speedWind from/ knotsBaromVisibWave heightAir tempDewpointWater temp
2013-Sep-30 23:53N 38°14' W 069°13'0 0.0 26.8
2013-Sep-30 23:47N 38°14' W 069°13'0 0.0 26.9
2013-Sep-30 23:46N 38°14' W 069°13'0 0.0 26.9
2013-Sep-30 23:09N 38°14' W 069°13'0 0.0 26.9
2013-Sep-30 22:30N 38°14' W 069°13'0 0.0 26.9
2013-Sep-30 22:10N 38°14' W 069°13'0 0.0 26.9
2013-Sep-30 21:11N 38°14' W 069°13'1 7.8 26.9
2013-Sep-30 21:05N 38°14' W 069°14'0 0.0 26.9
2013-Sep-30 20:58N 38°14' W 069°14'693.5 26.9
2013-Sep-30 20:54N 38°12' W 069°21'0 0.0 26.9
2013-Sep-30 19:31N 38°12' W 069°21'0 0.0 26.9
2013-Sep-30 19:22N 38°12' W 069°21'0 0.0 26.9
2013-Sep-30 18:49N 38°12' W 069°21'0 0.0 26.9
2013-Sep-30 18:41N 38°12' W 069°21'0 0.0 26.9
2013-Sep-30 17:48N 38°12' W 069°21'2 3.4 26.9
2013-Sep-30 17:07N 38°11' W 069°24'3 2.4 26.9
2013-Sep-30 16:03N 38°11' W 069°27'1 2.5 26.9
2013-Sep-30 15:43N 38°10' W 069°27'4 7.7 26.9
2013-Sep-30 15:13N 38°08' W 069°31'0 0.0 26.9
2013-Sep-30 14:25N 38°08' W 069°31'1 2.5 26.8
2013-Sep-30 14:05N 38°08' W 069°32'8126.5 26.8
2013-Sep-30 14:01N 38°04' W 069°42'0 0.0 26.8
2013-Sep-30 12:26N 38°04' W 069°42'0 0.0 26.8
2013-Sep-30 12:21N 38°04' W 069°42'0 0.0 26.8
2013-Sep-30 11:36N 38°04' W 069°42'0 0.0 26.8
2013-Sep-30 11:16N 38°04' W 069°42'430.5 26.8
2013-Sep-30 11:08N 38°02' W 069°46'0 0.0 26.8
2013-Sep-30 09:57N 38°02' W 069°46'1 6.9 26.8
2013-Sep-30 09:46N 38°01' W 069°47'432.3 26.8
2013-Sep-30 09:39N 37°59' W 069°51'0 0.0 26.8
2013-Sep-30 09:36N 37°59' W 069°51'0 0.0 26.8
2013-Sep-30 09:30N 37°59' W 069°51'0 0.0 26.9
2013-Sep-30 09:27N 37°59' W 069°51'0 0.0 26.9
2013-Sep-30 08:56N 37°59' W 069°51'0 0.0 26.9
2013-Sep-30 08:16N 37°59' W 069°51'1 4.6 26.9
2013-Sep-30 08:00N 37°58' W 069°52'338.7 26.9
2013-Sep-30 07:56N 37°55' W 069°53'0 0.0 26.9
2013-Sep-30 07:23N 37°55' W 069°53'953.2 26.9
2013-Sep-30 07:13N 37°54' W 070°04'0 0.0 26.9
2013-Sep-30 05:41N 37°54' W 070°04'0 0.0 26.9
2013-Sep-30 05:37N 37°54' W 070°04'881.6 26.9
2013-Sep-30 05:31N 37°47' W 070°10'0 0.0 26.9
2013-Sep-30 03:25N 37°47' W 070°10'0 0.0 27.0
2013-Sep-30 03:20N 37°47' W 070°10'1 0.9 27.0
2013-Sep-30 02:47N 37°47' W 070°10'263.3 27.0
2013-Sep-30 02:45N 37°46' W 070°12'0 0.1 27.0
2013-Sep-30 02:02N 37°46' W 070°12'2 8.4 27.0
2013-Sep-30 01:47N 37°46' W 070°15'0 0.9 27.0
2013-Sep-30 01:44N 37°46' W 070°15'527.9 27.0
2013-Sep-30 01:34N 37°43' W 070°19'0 0.0 27.0
2013-Sep-30 01:14N 37°43' W 070°19'0 0.0 27.0
2013-Sep-30 01:04N 37°43' W 070°19'1 1.1 27.0
2013-Sep-30 00:26N 37°43' W 070°20'0 0.0 27.0
2013-Sep-30 00:17N 37°43' W 070°20'1776.8 27.0
2013-Sep-30 00:04N 37°34' W 070°38'   27.0
2013-Sep-26 03:27N 34°12' W 075°46'3 3.4 28.3
2013-Sep-26 02:31N 34°09' W 075°48'6 7.7 28.4
2013-Sep-26 01:47N 34°06' W 075°53'0 0.0 28.4
2013-Sep-26 00:54N 34°06' W 075°53'1 6.3 28.4
2013-Sep-26 00:46N 34°07' W 075°53'21 3.4 28.4
2013-Sep-25 18:42N 33°50' W 076°08'1 1.1 28.4
2013-Sep-25 18:02N 33°50' W 076°07'7 5.7 28.4
2013-Sep-25 16:53N 33°44' W 076°12'0 0.0 28.4
2013-Sep-25 16:46N 33°44' W 076°12'0 0.1 28.4
2013-Sep-25 16:19N 33°44' W 076°12'0 1.0 28.4
2013-Sep-25 16:16N 33°44' W 076°12'0 0.4 28.4
2013-Sep-25 16:09N 33°44' W 076°12'0 7.0 28.4
2013-Sep-25 16:06N 33°44' W 076°12'3 3.2 28.4
2013-Sep-25 15:09N 33°42' W 076°14'111.1 28.4
2013-Sep-25 15:05N 33°42' W 076°14'2 3.4 28.4
2013-Sep-25 14:30N 33°40' W 076°15'419.5 28.4
2013-Sep-25 14:19N 33°37' W 076°17'7 7.8 28.4
2013-Sep-25 13:26N 33°32' W 076°23'0 0.0 28.4
2013-Sep-25 13:21N 33°32' W 076°23'0 0.0 28.4
2013-Sep-25 11:41N 33°32' W 076°23'4 4.5 28.4
2013-Sep-25 10:52N 33°30' W 076°26'0 1.1 28.4
2013-Sep-25 10:39N 33°30' W 076°27'228.7 28.4
2013-Sep-25 10:34N 33°28' W 076°28'0 0.0 28.4
2013-Sep-25 10:02N 33°28' W 076°28'322.2 28.4
2013-Sep-25 09:55N 33°26' W 076°30'0 0.0 28.4
2013-Sep-25 09:51N 33°26' W 076°30'0 0.0 28.4
2013-Sep-25 09:12N 33°26' W 076°30'1 8.3 28.4
2013-Sep-25 09:03N 33°25' W 076°31'0 1.8 28.4
2013-Sep-25 08:59N 33°25' W 076°31'122.6 28.4
2013-Sep-25 08:56N 33°25' W 076°32'221.2 28.4
2013-Sep-25 08:50N 33°23' W 076°33'0 0.0 28.4
2013-Sep-25 08:17N 33°23' W 076°33'0 0.0 28.4
2013-Sep-25 08:15N 33°23' W 076°33'774.2 28.4
2013-Sep-25 08:09N 33°19' W 076°41'0 0.0 28.4
2013-Sep-25 07:14N 33°19' W 076°41'0 0.0 28.4
2013-Sep-25 06:31N 33°19' W 076°41'10311.2 28.4
2013-Sep-25 06:29N 33°12' W 076°50'3 1.1 28.4
2013-Sep-25 03:45N 33°10' W 076°52'0 0.0 28.5
2013-Sep-25 02:55N 33°10' W 076°52'1 8.9 28.4
2013-Sep-25 02:46N 33°09' W 076°53'0 0.0 28.4
2013-Sep-25 02:41N 33°09' W 076°53'2 4.9 28.4
2013-Sep-25 02:11N 33°08' W 076°56'0 0.0 28.4
2013-Sep-25 02:08N 33°08' W 076°56'4 4.7 28.4
2013-Sep-25 01:16N 33°05' W 076°59'22133.1 28.5
2013-Sep-25 01:06N 32°47' W 077°15'0 0.0 28.5
2013-Sep-25 00:22N 32°47' W 077°15'0 0.0 28.5
2013-Sep-24 23:40N 32°47' W 077°15'0 0.0 28.5
2013-Sep-24 23:17N 32°47' W 077°15'0 0.0 28.5
2013-Sep-24 22:11N 32°47' W 077°15'0 0.0 28.5
2013-Sep-24 21:43N 32°47' W 077°15'0 0.0 28.5
2013-Sep-24 21:35N 32°47' W 077°15'0 0.0 28.5
2013-Sep-24 20:37N 32°47' W 077°15'0 0.0 28.5
2013-Sep-24 20:31N 32°47' W 077°15'0 0.0 28.5
2013-Sep-24 20:02N 32°47' W 077°15'0 0.4 28.5
2013-Sep-24 19:52N 32°47' W 077°15'0 0.0 28.5
2013-Sep-24 18:55N 32°47' W 077°15'912.8 28.5
2013-Sep-24 18:13N 32°40' W 077°21'9 8.9 28.5
2013-Sep-24 17:13N 32°47' W 077°15'1035.9 28.5
2013-Sep-24 16:57N 32°40' W 077°22'0 0.0 28.5
2013-Sep-24 16:30N 32°40' W 077°22'0 0.0 28.5
2013-Sep-24 16:27N 32°40' W 077°22'0 0.0 28.5
2013-Sep-24 15:23N 32°40' W 077°22'0 2.8 28.5
2013-Sep-24 15:16N 32°40' W 077°21'2 5.3 28.5
2013-Sep-24 14:53N 32°38' W 077°22'0 0.0 28.5
2013-Sep-24 14:50N 32°38' W 077°22'1618.0 28.5
2013-Sep-24 13:58N 32°26' W 077°35'0 0.0 28.5
2013-Sep-24 13:41N 32°26' W 077°35'0 0.0 28.5
2013-Sep-24 13:38N 32°26' W 077°35'0 0.0 28.5
2013-Sep-24 12:03N 32°26' W 077°35'0 0.0 28.5
2013-Sep-24 11:23N 32°26' W 077°35'0 0.0 28.5
2013-Sep-24 10:50N 32°26' W 077°35'0 0.0 28.5
2013-Sep-24 10:45N 32°26' W 077°35'0 0.0 28.5
2013-Sep-24 10:17N 32°26' W 077°35'0 0.0 28.5
2013-Sep-24 10:16N 32°26' W 077°35'0 0.0 28.5
2013-Sep-24 09:42N 32°26' W 077°35'1020.8 28.5
2013-Sep-24 09:14N 32°20' W 077°44'0 0.0 28.5
2013-Sep-24 09:11N 32°20' W 077°44'0 0.0 28.5
2013-Sep-24 09:03N 32°20' W 077°44'0 0.0 28.5
2013-Sep-24 08:39N 32°20' W 077°44'0 0.0 28.5
2013-Sep-24 08:26N 32°20' W 077°44'0 0.0 28.5
2013-Sep-24 07:30N 32°20' W 077°44'0 0.0 28.5
2013-Sep-24 07:27N 32°20' W 077°44'0 0.0 28.5
2013-Sep-24 06:48N 32°20' W 077°44'9 3.4 28.5
2013-Sep-24 04:06N 32°15' W 077°53'0 0.0 28.5
2013-Sep-24 03:17N 32°15' W 077°53'1 6.6 28.5
2013-Sep-24 03:10N 32°15' W 077°54'415.6 28.5
2013-Sep-24 02:55N 32°14' W 077°58'0 0.0 28.5
2013-Sep-24 02:32N 32°14' W 077°58'0 0.0 28.5
2013-Sep-24 02:29N 32°14' W 077°58'0 0.0 28.5
2013-Sep-24 01:31N 32°14' W 077°58'0 0.0 28.5
2013-Sep-24 01:29N 32°14' W 077°58'0 0.0 28.5
2013-Sep-24 01:17N 32°14' W 077°58'4 8.7 28.5
2013-Sep-24 00:48N 32°14' W 078°03'0 0.0 28.5
2013-Sep-24 00:11N 32°14' W 078°03'3 1.7 28.5
2013-Sep-23 22:31N 32°13' W 078°06'423.6 28.5
2013-Sep-23 22:22N 32°12' W 078°10'0 0.0 28.5
2013-Sep-23 22:06N 32°12' W 078°10'340.6 28.5
2013-Sep-23 22:02N 32°11' W 078°13'0 0.0 28.5
2013-Sep-23 20:45N 32°11' W 078°13'12138.5 28.6
2013-Sep-23 20:40N 32°09' W 078°27'0 0.0 28.6
2013-Sep-23 20:28N 32°09' W 078°27'0 0.0 28.6
2013-Sep-23 20:03N 32°09' W 078°27'0 0.0 28.6
2013-Sep-23 19:06N 32°09' W 078°27'0 0.0 28.6
2013-Sep-23 18:16N 32°09' W 078°27'0 0.0 28.6
2013-Sep-23 16:48N 32°09' W 078°27'433.2 28.6
2013-Sep-23 16:41N 32°07' W 078°31'0 0.0 28.6
2013-Sep-23 15:59N 32°07' W 078°31'2 4.7 28.5
2013-Sep-23 15:38N 32°06' W 078°32'0 0.0 28.6
2013-Sep-23 15:31N 32°06' W 078°32'9186.7 28.5
2013-Sep-23 15:28N 32°01' W 078°42'0 0.0 28.5
2013-Sep-23 15:11N 32°01' W 078°42'0 0.0 28.5
2013-Sep-23 15:04N 32°01' W 078°42'0 0.0 28.5
2013-Sep-23 14:16N 32°01' W 078°42'718.5 28.5
2013-Sep-23 13:53N 31°58' W 078°49'0 0.0 28.5
2013-Sep-23 13:49N 31°58' W 078°49'0 0.0 28.5
2013-Sep-23 13:28N 31°58' W 078°49'0 0.0 28.5
2013-Sep-23 11:52N 31°58' W 078°49'0 0.0 28.5
2013-Sep-23 11:01N 31°58' W 078°49'0 0.0
2013-Sep-23 11:00N 31°58' W 078°49'1 5.1 28.6
2013-Sep-23 10:47N 31°57' W 078°50'0 0.0 28.5
2013-Sep-23 10:15N 31°57' W 078°50'462.1 28.6
2013-Sep-23 10:11N 31°55' W 078°54'0 0.0 28.6
2013-Sep-23 09:25N 31°55' W 078°54'0 0.0 28.6
2013-Sep-23 09:22N 31°55' W 078°54'0 0.0 28.6
2013-Sep-23 09:17N 31°55' W 078°54'0 0.0 28.6
2013-Sep-23 09:14N 31°55' W 078°54'0 0.0 28.6
2013-Sep-23 09:05N 31°55' W 078°54'1 3.6 28.6
2013-Sep-23 08:41N 31°53' W 078°55'0 0.0 28.6
2013-Sep-23 08:38N 31°53' W 078°55'323.3 28.6
2013-Sep-23 08:31N 31°51' W 078°56'0 0.0 28.6
2013-Sep-23 07:41N 31°51' W 078°56'229.4 28.6
2013-Sep-23 07:36N 31°50' W 078°59'0 0.1 28.6
2013-Sep-23 06:59N 31°50' W 078°59'1163.7 28.6
2013-Sep-23 06:49N 31°42' W 079°07'0 0.0 28.6
2013-Sep-23 05:13N 31°42' W 079°07'0 0.1 28.6
2013-Sep-23 03:31N 31°42' W 079°07'2 6.5 28.7
2013-Sep-23 03:11N 31°40' W 079°08'0 0.0 28.7
2013-Sep-23 03:08N 31°40' W 079°08'1 2.6 28.7
2013-Sep-23 02:51N 31°41' W 079°08'3 3.4 28.7
2013-Sep-23 01:58N 31°38' W 079°10'0 1.2 28.7
2013-Sep-23 01:55N 31°38' W 079°10'114.6 28.7
2013-Sep-23 01:50N 31°37' W 079°11'0 0.0 28.7
2013-Sep-23 01:31N 31°37' W 079°11'2 9.8 28.7
2013-Sep-23 01:21N 31°36' W 079°12'0 0.0 28.7
2013-Sep-23 01:09N 31°36' W 079°12'1 9.5 28.7
2013-Sep-23 01:02N 31°35' W 079°13'0 0.0 28.7
2013-Sep-23 00:42N 31°35' W 079°13'5 9.3 28.7
2013-Sep-23 00:13N 31°32' W 079°16'0 0.1 28.7
2013-Sep-22 23:02N 31°32' W 079°16'2 3.7 28.7
2013-Sep-22 22:35N 31°30' W 079°17'554.4 28.7
2013-Sep-22 22:30N 31°26' W 079°20'590.6 28.7
2013-Sep-22 22:27N 31°30' W 079°17'5 3.2 28.7
2013-Sep-22 20:59N 31°26' W 079°20'0 0.0 28.7
2013-Sep-22 20:51N 31°26' W 079°20'0 0.0 28.7
2013-Sep-22 20:46N 31°26' W 079°20'1527.8 28.7
2013-Sep-22 20:13N 31°12' W 079°27'0 0.0 28.7
2013-Sep-22 19:17N 31°12' W 079°27'0 0.0 28.7
2013-Sep-22 19:10N 31°12' W 079°27'0 0.0 28.7
2013-Sep-22 18:31N 31°12' W 079°27'0 0.0 28.7
2013-Sep-22 18:21N 31°12' W 079°27'0 0.1 28.7
2013-Sep-22 16:52N 31°12' W 079°27'0 0.0 28.7
2013-Sep-22 16:16N 31°12' W 079°27'2 4.4 28.7
2013-Sep-22 15:46N 31°10' W 079°28'0 0.0 28.7
2013-Sep-22 15:43N 31°10' W 079°28'0 0.0 28.7
2013-Sep-22 15:40N 31°10' W 079°28'0 0.0 28.7
2013-Sep-22 15:30N 31°10' W 079°28'3 3.7 28.7
2013-Sep-22 14:42N 31°07' W 079°29'2 3.6 28.7
2013-Sep-22 14:09N 31°05' W 079°30'0 0.0 28.7
2013-Sep-22 14:06N 31°05' W 079°30'0 0.0 28.7
2013-Sep-22 13:57N 31°05' W 079°30'0 1.4 28.7
2013-Sep-22 13:50N 31°05' W 079°29'6 4.1 28.7
2013-Sep-22 12:24N 30°59' W 079°30'0 4.7 28.7
2013-Sep-22 12:23N 30°59' W 079°30'6 5.1 28.7
2013-Sep-22 11:11N 30°54' W 079°34'0 2.1 28.7
2013-Sep-22 11:08N 30°54' W 079°35'0 0.0 28.7
2013-Sep-22 10:45N 30°54' W 079°35'6 4.8 28.7
2013-Sep-22 09:31N 30°49' W 079°37'0 0.0 28.7
2013-Sep-22 09:28N 30°49' W 079°37'0 0.0 28.7
2013-Sep-22 09:05N 30°49' W 079°37'0 0.7 28.7
2013-Sep-22 08:48N 30°49' W 079°36'655.9 28.7
2013-Sep-22 08:42N 30°43' W 079°38'0 0.0 28.7
2013-Sep-22 07:55N 30°43' W 079°38'0 0.0 28.7
2013-Sep-22 07:49N 30°43' W 079°38'0 0.0 28.7
2013-Sep-22 07:13N 30°43' W 079°38'0 0.0 28.8
2013-Sep-22 07:10N 30°43' W 079°38'0 0.0 28.8
2013-Sep-22 07:07N 30°43' W 079°38'1197.4 28.8
2013-Sep-22 07:00N 30°33' W 079°42'0 0.0 28.8
2013-Sep-22 05:27N 30°33' W 079°42'0 0.0 28.8
2013-Sep-22 05:24N 30°33' W 079°42'0 0.0 28.8
2013-Sep-22 03:57N 30°33' W 079°42'113.8 28.9
2013-Sep-22 03:51N 30°31' W 079°43'4 7.7 28.9
2013-Sep-22 03:16N 30°28' W 079°46'0 0.0 28.9
2013-Sep-22 03:12N 30°28' W 079°46'0 0.0 28.9
2013-Sep-22 02:16N 30°28' W 079°46'0 0.0 29.0
2013-Sep-22 02:11N 30°28' W 079°46'2 4.1 29.0
2013-Sep-22 01:42N 30°26' W 079°46'865.3 29.1
2013-Sep-22 01:35N 30°19' W 079°48'769.7 29.1
2013-Sep-22 01:29N 30°26' W 079°47'726.1 29.1
2013-Sep-22 01:13N 30°19' W 079°48'0 0.0 29.1
2013-Sep-22 00:36N 30°19' W 079°48'0 0.0 29.3
2013-Sep-22 00:30N 30°19' W 079°48'1 1.5 29.4
2013-Sep-21 23:31N 30°20' W 079°49'2 3.8 29.7
2013-Sep-21 22:56N 30°18' W 079°49'6 5.7 29.7
2013-Sep-21 21:51N 30°13' W 079°53'0 0.0 30.0
2013-Sep-21 21:17N 30°13' W 079°53'1 5.2 29.9
2013-Sep-21 21:10N 30°12' W 079°53'0 0.9 29.9
2013-Sep-21 21:02N 30°12' W 079°53'6 9.6 30.0
2013-Sep-21 20:24N 30°06' W 079°55'0 0.0 30.0
2013-Sep-21 20:21N 30°06' W 079°55'0 0.1 30.0
2013-Sep-21 19:28N 30°06' W 079°55'1216.5 30.0
2013-Sep-21 18:45N 29°55' W 079°56'0 0.0 30.0
2013-Sep-21 17:00N 29°55' W 079°56'0 0.0 29.3
2013-Sep-21 16:01N 29°55' W 079°56'125.0 29.1
2013-Sep-21 15:59N 29°55' W 079°55'646.4 29.1
2013-Sep-21 15:51N 29°48' W 079°55'0 0.0 29.1
2013-Sep-21 15:47N 29°48' W 079°55'0 0.0 29.0
2013-Sep-21 15:01N 29°48' W 079°55'0 0.2 28.8
2013-Sep-21 14:17N 29°49' W 079°55'9270.1
2013-Sep-21 14:15N 29°40' W 079°55'0 0.0 28.7
2013-Sep-21 14:12N 29°40' W 079°55'0 0.0 28.7
2013-Sep-21 14:08N 29°40' W 079°55'910.5 28.7
2013-Sep-21 13:17N 29°48' W 079°55'0 0.0 28.7
2013-Sep-21 13:14N 29°48' W 079°55'926.7 28.7
2013-Sep-21 12:54N 29°40' W 079°55'0 0.0 28.7
2013-Sep-21 11:41N 29°40' W 079°55'0 4.8 28.7
2013-Sep-21 11:38N 29°40' W 079°55'1 5.6 28.7
2013-Sep-21 11:23N 29°38' W 079°55'1 6.8 28.7
2013-Sep-21 11:16N 29°38' W 079°55'4 3.3 28.7
2013-Sep-21 10:00N 29°34' W 079°54'1 6.4 28.7
2013-Sep-21 09:53N 29°33' W 079°55'0 0.0 28.7
2013-Sep-21 09:49N 29°33' W 079°55'0 0.6 28.7
2013-Sep-21 09:44N 29°33' W 079°55'233.3 28.7
2013-Sep-21 09:40N 29°32' W 079°53'21422.5 28.7
2013-Sep-21 09:37N 29°11' W 079°53'0 0.0 28.7
2013-Sep-21 08:57N 29°11' W 079°53'0 0.0 28.7
2013-Sep-21 08:04N 29°11' W 079°53'0 0.0 28.7
2013-Sep-21 08:01N 29°11' W 079°53'0 0.0 28.7
2013-Sep-21 07:58N 29°11' W 079°53'0 0.0 28.7
2013-Sep-21 07:17N 29°11' W 079°53'0 0.0 28.7
2013-Sep-21 07:11N 29°11' W 079°53'0 0.0 28.7
2013-Sep-21 05:38N 29°11' W 079°53'0 0.0 28.7
2013-Sep-21 05:35N 29°11' W 079°53'0 0.0 28.7
2013-Sep-21 04:16N 29°11' W 079°53'6 8.4 28.7
2013-Sep-21 03:30N 29°04' W 079°54'0 0.0 28.7
2013-Sep-21 02:32N 29°04' W 079°54'1 1.1 28.7
2013-Sep-21 01:54N 29°04' W 079°55'764.0 28.7
2013-Sep-21 01:47N 28°56' W 079°54'0 0.0 28.8
2013-Sep-21 01:41N 28°56' W 079°54'0 0.0 28.8
2013-Sep-21 00:57N 28°56' W 079°54'0 0.0 28.8
2013-Sep-21 00:08N 28°56' W 079°54'0 0.0 28.8
2013-Sep-21 00:07N 28°56' W 079°54'   28.8

Dump ship's entire track history